Time;durP1;ratioP1;P1;durP2;ratioP2;P2;SDS_P1;SDS_P2;PMS_P1;PMS_P2;Temp;Humidity;BMP_temperature;BMP_pressure;BME280_temperature;BME280_humidity;BME280_pressure;Samples;Min_cycle;Max_cycle;Signal;HPM_P1;HPM_P2
2021/07/23 00:01:44;;;;;;;4.82;3.15;;;19.40;76.80;;;;;;5027056;28;20033;-90
2021/07/23 00:04:11;;;;;;;6.25;3.90;;;19.30;77.10;;;;;;5009353;28;20041;-89
2021/07/23 00:06:36;;;;;;;5.55;2.97;;;19.30;76.90;;;;;;5027163;28;20113;-88
2021/07/23 00:09:03;;;;;;;6.43;3.28;;;19.30;77.00;;;;;;5009677;28;20319;-88
2021/07/23 00:11:28;;;;;;;7.45;3.35;;;19.30;77.00;;;;;;5027096;28;20083;-88
2021/07/23 00:13:54;;;;;;;5.28;3.35;;;19.30;76.50;;;;;;5027330;28;20490;-86
2021/07/23 00:16:20;;;;;;;5.55;3.17;;;19.30;76.10;;;;;;5008937;28;20030;-85
2021/07/23 00:18:45;;;;;;;5.05;2.72;;;19.40;75.20;;;;;;5026989;28;20037;-88
2021/07/23 00:21:11;;;;;;;4.97;3.05;;;19.60;70.70;;;;;;5026725;28;20402;-87
2021/07/23 00:23:36;;;;;;;7.88;3.53;;;19.80;71.40;;;;;;5009032;28;20073;-84
2021/07/23 00:26:12;;;;;;;8.90;3.10;;;19.90;71.00;;;;;;5026126;28;20060;-85
2021/07/23 00:28:38;;;;;;;6.15;2.63;;;20.00;68.60;;;;;;5027987;28;20033;-87
2021/07/23 00:31:04;;;;;;;5.00;3.00;;;20.10;68.20;;;;;;5012248;28;20033;-86
2021/07/23 00:33:30;;;;;;;11.00;2.60;;;20.20;68.10;;;;;;5012348;28;20102;-85
2021/07/23 00:35:55;;;;;;;5.95;3.17;;;20.30;67.90;;;;;;5028753;28;20112;-86
2021/07/23 00:38:21;;;;;;;11.32;2.90;;;20.30;67.40;;;;;;5029424;28;20030;-86
2021/07/23 00:40:47;;;;;;;7.30;3.63;;;20.30;68.00;;;;;;5029449;28;20030;-85
2021/07/23 00:43:12;;;;;;;4.85;2.60;;;20.20;68.90;;;;;;5029619;28;20041;-87
2021/07/23 00:45:38;;;;;;;6.70;2.90;;;20.10;68.80;;;;;;5029478;28;20033;-86
2021/07/23 00:48:04;;;;;;;6.07;3.13;;;20.00;69.50;;;;;;5011831;28;20391;-86
2021/07/23 00:50:31;;;;;;;15.40;3.17;;;19.90;69.50;;;;;;5011157;28;20025;-85
2021/07/23 00:52:57;;;;;;;6.75;3.40;;;19.90;69.60;;;;;;5011603;28;20397;-85
2021/07/23 00:55:24;;;;;;;5.07;2.72;;;19.90;69.50;;;;;;5028867;28;20033;-86
2021/07/23 00:57:53;;;;;;;3.97;2.92;;;19.80;69.80;;;;;;5029722;28;20032;-87
2021/07/23 01:00:19;;;;;;;6.05;2.83;;;19.80;70.10;;;;;;5029918;28;20025;-87
2021/07/23 01:02:46;;;;;;;4.90;3.00;;;19.80;69.90;;;;;;5011668;28;20036;-84
2021/07/23 01:05:11;;;;;;;7.05;2.78;;;19.80;69.50;;;;;;5010352;28;20034;-86
2021/07/23 01:07:37;;;;;;;5.13;2.75;;;19.80;70.00;;;;;;5011290;28;20044;-87
2021/07/23 01:10:04;;;;;;;5.03;3.30;;;19.80;70.30;;;;;;5011064;28;20030;-88
2021/07/23 01:12:30;;;;;;;4.00;2.85;;;19.80;70.40;;;;;;5011541;28;20512;-87
2021/07/23 01:14:59;;;;;;;4.90;2.92;;;19.70;70.80;;;;;;5011518;28;20033;-87
2021/07/23 01:17:26;;;;;;;4.45;3.10;;;19.70;71.10;;;;;;5011247;28;20029;-86
2021/07/23 01:19:57;;;;;;;8.23;2.85;;;19.60;71.10;;;;;;5010446;28;20030;-85
2021/07/23 01:22:27;;;;;;;8.82;3.30;;;19.60;71.40;;;;;;5012629;28;20025;-84
2021/07/23 01:24:54;;;;;;;5.70;3.35;;;19.60;72.70;;;;;;5010958;28;20036;-87
2021/07/23 01:27:20;;;;;;;11.50;3.33;;;19.50;72.30;;;;;;5028412;28;20091;-87
2021/07/23 01:29:46;;;;;;;5.63;2.88;;;19.50;72.90;;;;;;5011133;28;20409;-87
2021/07/23 01:32:12;;;;;;;6.68;3.15;;;19.50;73.20;;;;;;5028713;28;20516;-88
2021/07/23 01:34:39;;;;;;;7.65;3.53;;;19.40;73.60;;;;;;5010357;28;20057;-86
2021/07/23 01:37:05;;;;;;;5.18;3.05;;;19.30;74.20;;;;;;5030186;28;20052;-89
2021/07/23 01:39:32;;;;;;;7.32;3.13;;;19.30;74.70;;;;;;5030226;28;20030;-89
2021/07/23 01:41:58;;;;;;;7.43;3.40;;;19.20;75.30;;;;;;5010790;28;20034;-87
2021/07/23 01:44:23;;;;;;;7.63;3.10;;;19.10;76.00;;;;;;5028251;28;20631;-88
2021/07/23 01:46:49;;;;;;;4.35;2.95;;;19.00;76.40;;;;;;5010337;28;20029;-84
2021/07/23 01:49:15;;;;;;;4.55;2.78;;;19.00;76.80;;;;;;5011114;28;20128;-85
2021/07/23 01:51:40;;;;;;;8.10;3.00;;;19.00;77.10;;;;;;5011097;28;20565;-85
2021/07/23 01:54:06;;;;;;;4.82;3.08;;;18.90;77.70;;;;;;5010417;28;20115;-86
2021/07/23 01:56:32;;;;;;;4.38;3.03;;;18.90;78.20;;;;;;5010323;28;20747;-85
2021/07/23 01:58:57;;;;;;;6.43;2.85;;;18.90;78.40;;;;;;5010122;28;20075;-83
2021/07/23 02:01:23;;;;;;;4.80;2.85;;;18.80;78.70;;;;;;5010161;28;20109;-87
2021/07/23 02:03:49;;;;;;;10.35;2.47;;;18.80;79.20;;;;;;5010115;28;20045;-87
2021/07/23 02:06:15;;;;;;;5.45;3.00;;;18.70;79.20;;;;;;5009787;28;20022;-86
2021/07/23 02:08:41;;;;;;;5.40;2.78;;;18.70;79.30;;;;;;5010586;28;20029;-85
2021/07/23 02:11:07;;;;;;;6.20;2.47;;;18.70;79.30;;;;;;5010136;28;20021;-83
2021/07/23 02:13:32;;;;;;;4.38;2.47;;;18.70;79.30;;;;;;5009918;28;20041;-85
2021/07/23 02:16:01;;;;;;;4.22;2.88;;;18.80;79.20;;;;;;5010307;28;20099;-83
2021/07/23 02:18:27;;;;;;;5.82;3.05;;;18.70;79.50;;;;;;5027570;28;20632;-86
2021/07/23 02:20:52;;;;;;;5.07;2.78;;;18.70;79.80;;;;;;5009250;28;20018;-86
2021/07/23 02:23:18;;;;;;;4.95;2.22;;;18.70;79.60;;;;;;5027681;28;20068;-88
2021/07/23 02:25:44;;;;;;;4.70;2.42;;;18.70;79.70;;;;;;5009357;28;20493;-87
2021/07/23 02:28:09;;;;;;;6.47;2.70;;;18.70;79.60;;;;;;5027730;28;20060;-84
2021/07/23 02:30:35;;;;;;;8.02;2.50;;;18.70;79.40;;;;;;5009428;28;20025;-87
2021/07/23 02:33:01;;;;;;;7.03;2.42;;;18.70;79.60;;;;;;5010036;28;20049;-83
2021/07/23 02:35:26;;;;;;;5.82;2.78;;;18.60;79.60;;;;;;5009986;28;20072;-86
2021/07/23 02:37:52;;;;;;;4.65;2.22;;;18.60;79.70;;;;;;5009883;28;20029;-84
2021/07/23 02:40:17;;;;;;;6.05;3.13;;;18.60;80.00;;;;;;5027475;28;20033;-87
2021/07/23 02:42:43;;;;;;;6.68;2.70;;;18.50;80.30;;;;;;5009570;28;20034;-87
2021/07/23 02:45:09;;;;;;;14.20;3.17;;;18.40;80.70;;;;;;5010799;28;20100;-87
2021/07/23 02:47:35;;;;;;;4.70;2.50;;;18.40;80.80;;;;;;5028131;28;20025;-86
2021/07/23 02:50:00;;;;;;;3.50;2.35;;;18.40;81.10;;;;;;5010233;28;20086;-87
2021/07/23 02:52:26;;;;;;;5.70;2.38;;;18.30;81.20;;;;;;5010800;28;20687;-84
2021/07/23 02:54:51;;;;;;;4.38;3.00;;;18.30;81.40;;;;;;5028723;28;20037;-87
2021/07/23 02:57:17;;;;;;;4.97;2.88;;;18.20;81.80;;;;;;5011453;28;20029;-85
2021/07/23 02:59:43;;;;;;;5.82;2.75;;;18.10;82.30;;;;;;5029822;28;20036;-86
2021/07/23 03:02:08;;;;;;;6.25;2.95;;;18.10;82.80;;;;;;5012986;28;20036;-82
2021/07/23 03:04:34;;;;;;;3.88;2.75;;;18.00;83.20;;;;;;5032988;28;20072;-86
2021/07/23 03:06:59;;;;;;;6.07;3.30;;;17.90;83.50;;;;;;5016392;28;20028;-84
2021/07/23 03:09:25;;;;;;;6.10;2.88;;;17.80;83.90;;;;;;5016978;28;20037;-85
2021/07/23 03:11:51;;;;;;;6.78;3.35;;;17.80;84.70;;;;;;5018719;28;20476;-80
2021/07/23 03:14:16;;;;;;;5.90;2.78;;;17.70;84.90;;;;;;5021650;28;20036;-85
2021/07/23 03:16:42;;;;;;;4.15;2.60;;;17.70;84.90;;;;;;5036840;28;20091;-83
2021/07/23 03:19:07;;;;;;;9.57;3.08;;;17.70;84.70;;;;;;5039061;28;20418;-84
2021/07/23 03:21:33;;;;;;;6.30;2.80;;;17.70;84.50;;;;;;5021887;28;20029;-80
2021/07/23 03:23:59;;;;;;;8.95;3.92;;;17.70;84.90;;;;;;5028165;28;20040;-82
2021/07/23 03:26:25;;;;;;;5.45;3.20;;;17.70;84.40;;;;;;5029640;28;20029;-81
2021/07/23 03:28:50;;;;;;;6.20;3.15;;;17.70;84.40;;;;;;5035492;28;20049;-85
2021/07/23 03:31:16;;;;;;;8.93;3.00;;;17.70;84.50;;;;;;5050239;28;20036;-85
2021/07/23 03:33:42;;;;;;;4.63;2.60;;;17.70;84.50;;;;;;5040312;28;20327;-84
2021/07/23 03:36:07;;;;;;;8.35;2.20;;;17.80;84.60;;;;;;5041531;28;20063;-84
2021/07/23 03:38:33;;;;;;;6.30;2.25;;;17.80;83.70;;;;;;5022532;28;20049;-86
2021/07/23 03:40:59;;;;;;;4.70;2.75;;;17.90;83.20;;;;;;5036012;28;20785;-83
2021/07/23 03:43:25;;;;;;;7.60;2.90;;;17.90;83.70;;;;;;5032784;28;20436;-83
2021/07/23 03:45:51;;;;;;;10.82;3.75;;;17.90;83.90;;;;;;5032176;28;20083;-83
2021/07/23 03:48:16;;;;;;;5.20;3.28;;;17.90;83.80;;;;;;5013700;28;20021;-86
2021/07/23 03:50:42;;;;;;;7.07;2.78;;;17.90;83.90;;;;;;5013947;28;20029;-86
2021/07/23 03:53:08;;;;;;;9.05;3.15;;;18.00;84.30;;;;;;5014380;28;20034;-86
2021/07/23 03:55:33;;;;;;;7.88;3.35;;;18.00;84.30;;;;;;5012090;28;20025;-88
2021/07/23 03:57:59;;;;;;;6.10;3.00;;;18.00;84.30;;;;;;5011207;28;20517;-87
2021/07/23 04:00:24;;;;;;;5.57;2.85;;;18.10;84.10;;;;;;5011032;28;20034;-84
2021/07/23 04:02:50;;;;;;;9.95;2.40;;;18.20;83.40;;;;;;5011716;28;20490;-88
2021/07/23 04:05:16;;;;;;;6.47;3.15;;;18.30;83.20;;;;;;5013936;28;20091;-88
2021/07/23 04:07:41;;;;;;;5.57;2.97;;;18.40;83.20;;;;;;5013519;28;20021;-90
2021/07/23 04:10:08;;;;;;;6.07;2.90;;;18.50;82.90;;;;;;5013678;28;20379;-86
2021/07/23 04:12:33;;;;;;;6.68;2.92;;;18.70;83.00;;;;;;5013724;28;20026;-88
2021/07/23 04:15:01;;;;;;;7.15;3.60;;;18.80;82.90;;;;;;5031027;28;20041;-89
2021/07/23 04:17:26;;;;;;;6.00;3.15;;;18.90;82.60;;;;;;5013271;28;20034;-85
2021/07/23 04:19:52;;;;;;;10.25;2.95;;;19.00;81.40;;;;;;5031073;28;20189;-81
2021/07/23 04:22:17;;;;;;;8.10;2.40;;;19.20;81.20;;;;;;5029465;28;20609;-81
2021/07/23 04:24:43;;;;;;;5.40;3.10;;;19.30;80.80;;;;;;5011939;28;20388;-85
2021/07/23 04:27:09;;;;;;;11.55;3.17;;;19.40;80.30;;;;;;5029190;28;20037;-86
2021/07/23 04:29:35;;;;;;;6.22;2.63;;;19.50;80.10;;;;;;5029597;28;20033;-87
2021/07/23 04:32:01;;;;;;;6.85;3.30;;;19.70;79.80;;;;;;5029681;28;20402;-85
2021/07/23 04:34:26;;;;;;;4.55;2.83;;;19.80;80.20;;;;;;5028471;28;20076;-81
2021/07/23 04:36:52;;;;;;;5.20;2.80;;;20.00;79.40;;;;;;5029614;28;20029;-85
2021/07/23 04:39:18;;;;;;;3.47;2.58;;;20.10;78.80;;;;;;5028992;28;20112;-86
2021/07/23 04:41:43;;;;;;;11.50;2.60;;;20.20;78.60;;;;;;5011701;28;20088;-84
2021/07/23 04:44:09;;;;;;;9.65;2.80;;;20.20;78.70;;;;;;5011189;28;20033;-85
2021/07/23 04:46:34;;;;;;;3.95;2.60;;;20.30;78.10;;;;;;5029116;28;20445;-86
2021/07/23 04:49:00;;;;;;;7.70;3.22;;;20.50;77.70;;;;;;5009800;28;20017;-85
2021/07/23 04:51:28;;;;;;;5.13;2.92;;;20.50;77.40;;;;;;5010120;28;20029;-85
2021/07/23 04:53:54;;;;;;;6.63;2.90;;;20.70;77.20;;;;;;5010131;28;20030;-84
2021/07/23 04:56:19;;;;;;;7.32;3.05;;;20.80;76.60;;;;;;5009992;28;20036;-83
2021/07/23 04:58:45;;;;;;;3.92;2.85;;;20.90;76.70;;;;;;5010143;28;20486;-86
2021/07/23 05:01:10;;;;;;;4.03;2.50;;;21.00;76.60;;;;;;5028754;28;20108;-86
2021/07/23 05:03:38;;;;;;;14.32;3.10;;;21.10;76.30;;;;;;5010778;28;20129;-85
2021/07/23 05:06:08;;;;;;;7.65;2.85;;;21.30;75.70;;;;;;5010549;28;20040;-84
2021/07/23 05:08:37;;;;;;;4.75;2.65;;;21.40;74.80;;;;;;5027754;28;20029;-84
2021/07/23 05:11:15;;;;;;;9.98;3.30;;;21.50;74.40;;;;;;5009829;28;20033;-83
2021/07/23 05:13:43;;;;;;;9.00;2.70;;;21.70;73.60;;;;;;5026762;28;20080;-86
2021/07/23 05:16:09;;;;;;;7.63;2.25;;;22.00;73.20;;;;;;5027109;28;20126;-84
2021/07/23 05:18:38;;;;;;;5.68;2.55;;;22.10;72.80;;;;;;5026879;28;20021;-84
2021/07/23 05:21:06;;;;;;;6.47;3.00;;;22.30;72.40;;;;;;5025391;28;20033;-84
2021/07/23 05:23:34;;;;;;;4.45;2.53;;;22.60;71.40;;;;;;5026799;28;20041;-84
2021/07/23 05:26:02;;;;;;;3.70;2.55;;;22.90;70.20;;;;;;5024093;28;20033;-85
2021/07/23 05:28:27;;;;;;;4.50;2.70;;;23.10;69.60;;;;;;5009268;28;20026;-84
2021/07/23 05:30:53;;;;;;;8.32;3.03;;;23.30;68.40;;;;;;5027032;28;20026;-82
2021/07/23 05:33:19;;;;;;;4.97;2.72;;;23.50;67.40;;;;;;5008502;28;20048;-83
2021/07/23 05:35:44;;;;;;;4.22;2.50;;;23.60;66.20;;;;;;5009272;28;20028;-82
2021/07/23 05:38:14;;;;;;;8.75;3.08;;;23.70;65.50;;;;;;5010202;28;20037;-82
2021/07/23 05:40:40;;;;;;;6.65;2.88;;;23.80;64.30;;;;;;5008995;28;20052;-81
2021/07/23 05:43:05;;;;;;;7.10;2.92;;;23.90;63.50;;;;;;5028267;28;20049;-82
2021/07/23 05:45:31;;;;;;;8.15;3.00;;;24.10;61.30;;;;;;5033030;28;20098;-83
2021/07/23 05:47:58;;;;;;;8.73;2.85;;;24.30;59.30;;;;;;5005754;28;20421;-83
2021/07/23 05:50:23;;;;;;;5.05;2.63;;;24.30;59.10;;;;;;5008187;28;20100;-83
2021/07/23 05:52:49;;;;;;;8.60;2.85;;;24.50;58.00;;;;;;5033193;28;20426;-80
2021/07/23 05:55:15;;;;;;;7.65;2.97;;;24.70;57.40;;;;;;5030160;28;20060;-81
2021/07/23 05:57:40;;;;;;;8.82;3.53;;;25.00;57.60;;;;;;5003964;28;20525;-80
2021/07/23 06:00:07;;;;;;;9.00;3.28;;;25.50;56.40;;;;;;4992030;28;20133;-82
2021/07/23 06:02:32;;;;;;;12.05;3.40;;;26.30;54.50;;;;;;4998333;28;20030;-80
2021/07/23 06:04:58;;;;;;;8.35;3.53;;;27.10;51.60;;;;;;5029764;28;20391;-81
2021/07/23 06:07:24;;;;;;;6.07;2.88;;;27.50;48.90;;;;;;5027998;28;20498;-79
2021/07/23 06:09:50;;;;;;;7.88;3.53;;;28.00;47.70;;;;;;5006547;28;20038;-80
2021/07/23 06:12:15;;;;;;;7.03;3.00;;;28.20;46.70;;;;;;5010185;28;20033;-82
2021/07/23 06:14:41;;;;;;;9.50;3.58;;;28.60;46.30;;;;;;5006883;28;20037;-80
2021/07/23 06:17:08;;;;;;;7.43;3.05;;;29.40;44.20;;;;;;5006932;28;20566;-81
2021/07/23 06:19:35;;;;;;;9.57;2.80;;;30.50;42.00;;;;;;5028742;28;20037;-81
2021/07/23 06:22:01;;;;;;;10.07;3.60;;;30.80;41.80;;;;;;5023834;28;20122;-81
2021/07/23 06:24:27;;;;;;;10.80;3.65;;;31.50;39.90;;;;;;5006168;28;20111;-80
2021/07/23 06:26:52;;;;;;;6.82;3.15;;;32.20;39.40;;;;;;4997306;28;20049;-81
2021/07/23 06:29:18;;;;;;;7.55;3.45;;;32.30;38.30;;;;;;5001420;28;20049;-82
2021/07/23 06:31:44;;;;;;;8.20;3.38;;;33.00;38.00;;;;;;5030637;28;20234;-81
2021/07/23 06:34:09;;;;;;;9.73;3.63;;;33.60;37.00;;;;;;5027019;28;20525;-82
2021/07/23 06:36:35;;;;;;;10.32;4.25;;;33.70;36.60;;;;;;5025413;28;20414;-81
2021/07/23 06:39:01;;;;;;;7.85;3.60;;;34.10;35.30;;;;;;5028306;28;20043;-81
2021/07/23 06:41:26;;;;;;;7.28;3.15;;;33.90;35.20;;;;;;5026659;28;20041;-82
2021/07/23 06:43:52;;;;;;;8.15;3.30;;;33.70;35.40;;;;;;5002172;28;20124;-81
2021/07/23 06:46:18;;;;;;;8.68;4.13;;;34.00;35.50;;;;;;5008062;28;20041;-81
2021/07/23 06:48:43;;;;;;;8.88;3.00;;;34.40;34.60;;;;;;5009932;28;20395;-81
2021/07/23 06:51:09;;;;;;;9.93;3.55;;;34.70;34.00;;;;;;5005784;28;20045;-81
2021/07/23 06:53:34;;;;;;;10.32;3.97;;;34.30;34.10;;;;;;5010321;28;20063;-81
2021/07/23 06:56:03;;;;;;;12.85;3.50;;;34.10;35.00;;;;;;5033586;28;20061;-81
2021/07/23 06:58:28;;;;;;;8.73;3.80;;;33.90;35.20;;;;;;5004328;28;20045;-82
2021/07/23 07:00:54;;;;;;;8.35;3.25;;;33.60;35.70;;;;;;5033504;28;20116;-82
2021/07/23 07:03:19;;;;;;;11.90;4.03;;;33.50;35.90;;;;;;5029608;28;20099;-81
2021/07/23 07:05:50;;;;;;;7.95;3.65;;;33.60;35.30;;;;;;5007634;28;20841;-82
2021/07/23 07:08:16;;;;;;;7.60;3.20;;;33.60;35.60;;;;;;5024392;28;20040;-81
2021/07/23 07:10:41;;;;;;;9.90;3.17;;;33.50;35.80;;;;;;5007751;28;20090;-81
2021/07/23 07:13:07;;;;;;;9.85;3.22;;;33.60;36.10;;;;;;5007707;28;20049;-81
2021/07/23 07:15:33;;;;;;;7.07;3.55;;;33.50;35.60;;;;;;5027127;28;20457;-80
2021/07/23 07:18:00;;;;;;;6.95;3.35;;;33.90;35.20;;;;;;5029048;28;20037;-81
2021/07/23 07:20:26;;;;;;;7.75;3.40;;;33.80;35.20;;;;;;5030609;28;20060;-82
2021/07/23 07:22:52;;;;;;;10.23;3.78;;;33.70;35.70;;;;;;5030319;28;20030;-81
2021/07/23 07:25:19;;;;;;;8.05;3.53;;;33.70;35.40;;;;;;5007929;28;20045;-81
2021/07/23 07:27:44;;;;;;;6.90;3.47;;;33.60;34.70;;;;;;5032228;28;20045;-82
2021/07/23 07:30:10;;;;;;;7.20;2.65;;;33.70;34.70;;;;;;5010460;28;20091;-81
2021/07/23 07:32:36;;;;;;;6.18;3.28;;;33.90;35.80;;;;;;5026718;28;20675;-81
2021/07/23 07:35:02;;;;;;;6.28;2.75;;;34.10;35.20;;;;;;5029768;28;20051;-81
2021/07/23 07:37:27;;;;;;;6.97;2.63;;;34.50;34.10;;;;;;5030478;28;20041;-82
2021/07/23 07:39:53;;;;;;;5.18;3.00;;;34.50;34.20;;;;;;5030176;28;20752;-82
2021/07/23 07:42:19;;;;;;;4.72;2.90;;;34.70;33.20;;;;;;5008016;28;20074;-80
2021/07/23 07:44:46;;;;;;;5.50;3.25;;;34.50;34.00;;;;;;5029769;28;20621;-82
2021/07/23 07:47:11;;;;;;;4.50;3.03;;;34.80;34.00;;;;;;5009464;28;20037;-82
2021/07/23 07:49:37;;;;;;;9.98;2.50;;;34.90;33.70;;;;;;5030597;28;20116;-81
2021/07/23 07:52:03;;;;;;;6.40;2.75;;;35.00;33.10;;;;;;5030463;28;20502;-82
2021/07/23 07:54:29;;;;;;;4.90;2.60;;;34.90;33.20;;;;;;5013986;28;20769;-81
2021/07/23 07:56:57;;;;;;;8.07;2.75;;;35.20;33.70;;;;;;5031395;28;20553;-80
2021/07/23 07:59:23;;;;;;;5.43;3.03;;;35.40;32.50;;;;;;5009125;28;20037;-82
2021/07/23 08:01:49;;;;;;;6.10;2.63;;;35.40;32.50;;;;;;5010413;28;20045;-81
2021/07/23 08:04:15;;;;;;;8.20;3.00;;;35.40;32.30;;;;;;5009050;28;20100;-79
2021/07/23 08:06:42;;;;;;;5.93;2.40;;;35.70;31.70;;;;;;5031713;28;20065;-80
2021/07/23 08:09:10;;;;;;;10.13;3.15;;;35.60;32.20;;;;;;5010229;28;20060;-82
2021/07/23 08:11:36;;;;;;;5.20;2.50;;;35.70;32.70;;;;;;5000037;28;20076;-81
2021/07/23 08:14:02;;;;;;;7.65;2.88;;;35.80;32.70;;;;;;5025633;28;20065;-81
2021/07/23 08:16:29;;;;;;;4.60;2.80;;;36.10;32.10;;;;;;5008771;28;20464;-80
2021/07/23 08:18:56;;;;;;;3.53;2.60;;;36.30;31.40;;;;;;5034858;28;20079;-81
2021/07/23 08:21:21;;;;;;;5.85;2.38;;;36.00;31.70;;;;;;5008832;28;20080;-83
2021/07/23 08:23:47;;;;;;;14.02;3.15;;;35.60;31.40;;;;;;5010918;28;20073;-83
2021/07/23 08:26:13;;;;;;;5.18;2.55;;;35.30;32.30;;;;;;5003001;28;20042;-83
2021/07/23 08:28:39;;;;;;;5.53;2.50;;;34.80;31.80;;;;;;5020944;28;20041;-83
2021/07/23 08:31:04;;;;;;;6.75;2.70;;;34.90;32.90;;;;;;5021662;28;20038;-83
2021/07/23 08:33:30;;;;;;;4.78;2.85;;;35.20;30.80;;;;;;5000078;28;20061;-82
2021/07/23 08:35:55;;;;;;;4.40;2.67;;;35.10;30.80;;;;;;4994395;28;20104;-84
2021/07/23 08:38:21;;;;;;;5.28;2.70;;;34.70;31.20;;;;;;4996427;28;20043;-81
2021/07/23 08:40:47;;;;;;;7.10;3.10;;;35.10;33.20;;;;;;5022903;28;20051;-82
2021/07/23 08:43:12;;;;;;;4.88;3.42;;;35.40;33.10;;;;;;5020969;28;20041;-83
2021/07/23 08:45:39;;;;;;;4.00;2.70;;;35.70;32.40;;;;;;5025461;28;20038;-82
2021/07/23 08:48:05;;;;;;;6.88;3.25;;;36.00;31.50;;;;;;5017431;28;20042;-83
2021/07/23 08:50:31;;;;;;;10.93;3.47;;;36.20;31.10;;;;;;5013556;28;20065;-82
2021/07/23 08:52:57;;;;;;;6.88;3.03;;;36.10;30.60;;;;;;4988252;28;20080;-82
2021/07/23 08:55:24;;;;;;;12.50;3.10;;;35.80;31.40;;;;;;5013602;28;20041;-82
2021/07/23 08:57:51;;;;;;;5.97;3.42;;;35.60;31.10;;;;;;5020258;28;20038;-81
2021/07/23 09:00:19;;;;;;;5.15;3.00;;;35.30;32.60;;;;;;5029524;28;20095;-82
2021/07/23 09:02:59;;;;;;;7.45;2.70;;;35.70;30.40;;;;;;5009746;28;20041;-82
2021/07/23 09:05:51;;;;;;;5.38;2.88;;;35.50;32.00;;;;;;5031781;28;20510;-82
2021/07/23 09:08:17;;;;;;;5.95;2.92;;;36.00;31.10;;;;;;4993498;28;20058;-82
2021/07/23 09:10:45;;;;;;;12.20;3.83;;;35.70;31.80;;;;;;5030521;28;20070;-82
2021/07/23 09:13:19;;;;;;;4.93;3.40;;;35.90;32.10;;;;;;5029283;28;20033;-82
2021/07/23 09:15:45;;;;;;;15.23;3.28;;;35.20;30.80;;;;;;4998364;28;20041;-82
2021/07/23 09:18:23;;;;;;;4.63;3.03;;;34.60;32.60;;;;;;5028884;28;20107;-82
2021/07/23 09:20:55;;;;;;;4.53;2.70;;;35.10;32.50;;;;;;5028012;28;20168;-80
2021/07/23 09:23:30;;;;;;;14.48;3.13;;;35.10;32.50;;;;;;5030761;28;20068;-80
2021/07/23 09:25:57;;;;;;;5.43;2.53;;;35.80;31.30;;;;;;5024541;28;20033;-81
2021/07/23 09:28:27;;;;;;;8.23;2.50;;;35.90;31.90;;;;;;5020361;28;20449;-83
2021/07/23 09:30:54;;;;;;;3.20;2.67;;;36.00;31.90;;;;;;5010234;28;20037;-81
2021/07/23 09:33:25;;;;;;;5.03;2.70;;;35.80;32.30;;;;;;5026536;28;20050;-82
2021/07/23 09:35:54;;;;;;;4.93;3.00;;;35.90;32.00;;;;;;5029231;28;20040;-79
2021/07/23 09:38:24;;;;;;;6.65;3.13;;;35.90;32.00;;;;;;5006341;28;20022;-79
2021/07/23 09:40:50;;;;;;;12.52;3.53;;;36.30;31.30;;;;;;5007781;28;20128;-81
2021/07/23 09:43:35;;;;;;;4.20;3.15;;;35.90;31.00;;;;;;5031512;28;20116;-80
2021/07/23 09:46:20;;;;;;;8.82;3.70;;;35.30;31.40;;;;;;5030526;28;20041;-79
2021/07/23 09:48:47;;;;;;;8.38;3.40;;;35.10;32.20;;;;;;5031477;28;20029;-80
2021/07/23 09:51:13;;;;;;;7.43;3.83;;;35.00;32.50;;;;;;5008403;28;20068;-79
2021/07/23 09:53:40;;;;;;;10.93;3.88;;;34.90;32.70;;;;;;5029830;28;20041;-78
2021/07/23 09:56:07;;;;;;;5.03;3.58;;;35.00;33.10;;;;;;5008360;28;20029;-79
2021/07/23 09:58:40;;;;;;;7.72;3.45;;;35.00;32.70;;;;;;5037924;28;20068;-81
2021/07/23 10:01:09;;;;;;;11.85;3.47;;;35.70;32.20;;;;;;5008143;28;20040;-81
2021/07/23 10:03:41;;;;;;;10.43;3.17;;;36.10;32.10;;;;;;5006347;28;20030;-82
2021/07/23 10:06:15;;;;;;;6.88;3.25;;;36.60;31.90;;;;;;5030229;28;20494;-82
2021/07/23 10:08:47;;;;;;;7.30;3.80;;;36.80;30.90;;;;;;5030261;28;20030;-79
2021/07/23 10:11:20;;;;;;;7.65;3.10;;;36.70;30.80;;;;;;5008834;28;20073;-81
2021/07/23 10:13:47;;;;;;;8.50;3.00;;;36.30;31.70;;;;;;5004940;28;20045;-78
2021/07/23 10:16:13;;;;;;;6.90;3.28;;;35.80;32.40;;;;;;5028769;28;20112;-81
2021/07/23 10:18:39;;;;;;;8.32;3.55;;;35.30;31.80;;;;;;5008430;28;20049;-81
2021/07/23 10:21:06;;;;;;;5.10;3.58;;;34.70;33.60;;;;;;5005557;28;20462;-81
2021/07/23 10:23:33;;;;;;;4.93;3.40;;;34.50;34.20;;;;;;5031694;28;20163;-79
2021/07/23 10:26:00;;;;;;;9.25;3.67;;;34.40;34.40;;;;;;5032326;28;20126;-78
2021/07/23 10:28:42;;;;;;;5.93;3.03;;;34.00;32.70;;;;;;5007733;28;20029;-78
2021/07/23 10:31:17;;;;;;;5.72;3.10;;;33.60;33.90;;;;;;5004164;28;20805;-78
2021/07/23 10:34:09;;;;;;;5.67;3.87;;;33.10;34.80;;;;;;5006706;28;20061;-78
2021/07/23 10:36:35;;;;;;;6.93;3.50;;;33.00;35.20;;;;;;5005519;28;20742;-79
2021/07/23 10:39:06;;;;;;;4.55;3.25;;;32.80;35.40;;;;;;5026017;28;20562;-78
2021/07/23 10:41:42;;;;;;;7.00;3.60;;;32.70;34.40;;;;;;5008599;28;20450;-79
2021/07/23 10:44:11;;;;;;;;;;;32.60;35.40;;;;;;5008970;28;20494;-79
2021/07/23 10:46:43;;;;;;;9.23;3.03;;;32.70;35.80;;;;;;5026488;28;20043;-79
2021/07/23 10:49:09;;;;;;;7.45;3.65;;;32.60;35.90;;;;;;5026643;28;20115;-79
2021/07/23 10:51:46;;;;;;;7.60;3.70;;;32.60;35.80;;;;;;5008896;28;20022;-80
2021/07/23 10:54:12;;;;;;;5.75;3.55;;;32.70;35.10;;;;;;5008853;28;20676;-81
2021/07/23 10:57:01;;;;;;;4.57;3.42;;;32.60;36.10;;;;;;5026550;28;20025;-80
2021/07/23 10:59:41;;;;;;;6.53;3.55;;;32.40;36.30;;;;;;5008368;28;20029;-80
2021/07/23 11:02:28;;;;;;;6.15;3.45;;;32.40;35.90;;;;;;5008993;28;20603;-80
2021/07/23 11:05:03;;;;;;;12.60;4.25;;;32.40;36.10;;;;;;5026171;28;20029;-79
2021/07/23 11:07:29;;;;;;;4.45;3.30;;;32.40;36.20;;;;;;5026174;28;20112;-80
2021/07/23 11:09:55;;;;;;;8.30;3.50;;;31.90;36.10;;;;;;5008386;28;20505;-80
2021/07/23 11:12:25;;;;;;;12.10;4.03;;;31.80;37.10;;;;;;5026072;28;20037;-80
2021/07/23 11:14:54;;;;;;;7.50;3.40;;;31.50;37.10;;;;;;5008114;28;20112;-80
2021/07/23 11:17:21;;;;;;;10.73;3.47;;;31.20;37.80;;;;;;5026050;28;20025;-80
2021/07/23 11:19:53;;;;;;;6.95;3.35;;;31.20;37.40;;;;;;5008648;28;20460;-80
2021/07/23 11:22:23;;;;;;;10.80;3.35;;;31.10;37.70;;;;;;5026714;28;20061;-78
2021/07/23 11:24:49;;;;;;;9.65;3.42;;;31.10;37.60;;;;;;5025953;28;20047;-80
2021/07/23 11:27:25;;;;;;;5.00;3.20;;;31.20;39.30;;;;;;5026760;28;20022;-80
2021/07/23 11:29:52;;;;;;;6.20;3.28;;;31.40;38.40;;;;;;5025837;28;20057;-80
2021/07/23 11:32:18;;;;;;;9.38;3.78;;;31.50;37.80;;;;;;5008206;28;20045;-81
2021/07/23 11:34:44;;;;;;;9.15;3.35;;;31.60;37.60;;;;;;5025905;28;20084;-80
2021/07/23 11:37:25;;;;;;;5.35;3.40;;;31.60;38.00;;;;;;5008556;28;20128;-80
2021/07/23 11:39:57;;;;;;;12.30;3.80;;;31.80;36.70;;;;;;5025800;28;20120;-80
2021/07/23 11:42:24;;;;;;;5.05;3.42;;;31.90;36.40;;;;;;5008352;28;20030;-80
2021/07/23 11:44:52;;;;;;;6.53;3.38;;;32.00;36.30;;;;;;5007922;28;20044;-81
2021/07/23 11:47:37;;;;;;;6.75;3.50;;;32.00;36.80;;;;;;5026193;28;20022;-81
2021/07/23 11:50:13;;;;;;;4.53;3.45;;;32.20;36.20;;;;;;5008076;28;20029;-80
2021/07/23 11:52:39;;;;;;;8.45;2.95;;;32.20;35.40;;;;;;5008385;28;20040;-80
2021/07/23 11:55:08;;;;;;;6.63;3.25;;;32.40;35.20;;;;;;5008335;28;20026;-80
2021/07/23 11:57:40;;;;;;;6.95;3.47;;;32.50;34.50;;;;;;5025801;28;20022;-79
2021/07/23 12:00:30;;;;;;;4.82;2.97;;;32.50;33.50;;;;;;5026063;28;20083;-80
2021/07/23 12:02:56;;;;;;;7.35;3.28;;;32.40;35.00;;;;;;5008465;28;20720;-81
2021/07/23 12:05:23;;;;;;;4.72;2.70;;;32.50;34.60;;;;;;5025684;28;20072;-81
2021/07/23 12:08:00;;;;;;;7.30;3.50;;;32.60;35.20;;;;;;5007721;28;20045;-80
2021/07/23 12:10:27;;;;;;;5.97;3.65;;;32.60;35.00;;;;;;5008396;28;20409;-80
2021/07/23 12:12:53;;;;;;;5.15;3.40;;;32.40;35.10;;;;;;5025379;28;20037;-79
2021/07/23 12:15:20;;;;;;;10.07;3.70;;;32.20;34.90;;;;;;5025704;28;20029;-80
2021/07/23 12:17:48;;;;;;;8.75;3.13;;;32.10;34.80;;;;;;5025681;28;20032;-80
2021/07/23 12:20:15;;;;;;;6.30;3.58;;;31.80;34.90;;;;;;5026005;28;20029;-80
2021/07/23 12:22:54;;;;;;;11.20;3.08;;;31.60;35.00;;;;;;5025704;28;20026;-81
2021/07/23 12:25:21;;;;;;;8.88;3.30;;;31.40;35.20;;;;;;5029448;28;20034;-80
2021/07/23 12:28:07;;;;;;;5.15;2.80;;;31.20;35.20;;;;;;5028888;28;20034;-79
2021/07/23 12:30:34;;;;;;;8.90;3.40;;;31.10;35.70;;;;;;5011842;28;20498;-79
2021/07/23 12:33:13;;;;;;;8.43;3.38;;;31.00;36.30;;;;;;5011504;28;20458;-80
2021/07/23 12:35:43;;;;;;;7.13;3.00;;;31.00;35.20;;;;;;5028710;28;20508;-80
2021/07/23 12:38:09;;;;;;;4.88;3.17;;;31.10;35.10;;;;;;5011411;28;20472;-79
2021/07/23 12:40:48;;;;;;;5.13;3.05;;;31.00;34.70;;;;;;5011424;28;20033;-80
2021/07/23 12:43:16;;;;;;;5.50;3.88;;;30.90;35.10;;;;;;5010811;28;20029;-79
2021/07/23 12:45:42;;;;;;;5.28;3.08;;;30.70;34.70;;;;;;5028985;28;20029;-80
2021/07/23 12:48:10;;;;;;;9.75;3.20;;;30.70;35.70;;;;;;5011324;28;20029;-80